Airfield :
LOGIN :

Register | Disclaimer

   EN    FR    IT 

 










Legend :    VFR   Marginal VFR   IFR   Intensive IFR   Very Intensive IFR
Visi :
Ceiling :
>= 8 km
>= 3000ft
5 to 8 km
1000 to 3000 ft
1500m to 5 km
500 to 1000 ft
800 to 1500m
200 to 500 ft
< 800m
< 200 ft
Symbols :   Thunderstorms  Fog  Heavy snow  Heavy precipitations  Wind > 20 kt
SIGMETs :     Misc.  Thunderstorms  Icing  Turbulence  Mountain Waves  Volcanic Ashes







- Airport Elevation : 433 ft
- IATA code : CCF
- Download approach charts


LFMK - Carcassonne

CURRENT METAR :
  • 260930Z AUTO 28013KT 240V300 9999 -RA OVC019 13/11 Q1020 TEMPO 28020G30KT SHRA BKN013TCU

EXPIRED METARs :
  • 260900Z AUTO 28014KT 9999 OVC021 13/11 Q1020 TEMPO 28020G30KT SHRA BKN013TCU
  • 260830Z AUTO 28016KT 9999 OVC021 13/11 Q1020 TEMPO 28020G30KT SHRA BKN013TCU
  • 260800Z AUTO 27012KT 9999 BKN022 OVC028 13/11 Q1020 TEMPO SHRA BKN008 FEW030TCU BECMG 27015G25KT
  • 260730Z AUTO 26010KT 220V290 9999 BKN025 BKN031 OVC038 12/11 Q1021 TEMPO SHRA BKN008 FEW030TCU BECMG 27015G25KT
  • 260700Z AUTO 26011KT 230V290 9999 -RA FEW031 OVC039 12/11 Q1020 TEMPO SHRA BKN008 FEW030TCU BECMG 27015G25KT

TAF TAF LFMK
Valid from the 26 at 09:00 until the 27 at 09:00 UTC


260800Z 2609/2709 27012KT 9999 BKN030
TEMPO 2609/2620 28020G30KT
PROB30
TEMPO 2609/2614 SHRA BKN013TCU
TEMPO 2622/2709 28015G25KT RA BKN007
No reported NOTAMs for that airfield.



MET'MAP, your aeronautical weather chart ! - Copyright ORBIFLY December 2007 - Disclaimer

ORBIFLY MET'MAP TEAM :

Programming & Development : Alexandra Zaïnal
Concept & Development : Baudouin d'Aumeries
Co-Development & Prog : Marc-Olivier Méhu
Technical & hardware support : Manuel Goepfert

Contact : metmap@orbifly.com




SOURCES & CREDITS :

   NOAA